createdAt,value
2022-07-27T00:00:48.089Z,55.54
2022-07-27T00:03:15.068Z,55.84
2022-07-27T00:05:41.944Z,56.12
2022-07-27T00:08:08.706Z,56.30
2022-07-27T00:10:36.654Z,56.40
2022-07-27T00:13:04.776Z,56.66
2022-07-27T00:15:31.870Z,56.28
2022-07-27T00:18:01.085Z,56.63
2022-07-27T00:20:28.929Z,56.51
2022-07-27T00:22:56.217Z,56.47
2022-07-27T00:25:26.957Z,56.05
2022-07-27T00:27:53.842Z,56.06
2022-07-27T00:30:21.485Z,55.50
2022-07-27T00:32:48.393Z,55.30
2022-07-27T00:35:15.174Z,55.80
2022-07-27T00:37:43.124Z,56.14
2022-07-27T00:40:10.560Z,56.69
2022-07-27T00:42:37.436Z,56.20
2022-07-27T00:45:05.618Z,56.38
2022-07-27T00:47:32.514Z,56.58
2022-07-27T00:49:59.677Z,56.23
2022-07-27T00:52:28.631Z,56.42
2022-07-27T00:54:55.818Z,55.88
2022-07-27T00:57:23.412Z,55.77
2022-07-27T00:59:50.187Z,55.66
2022-07-27T01:02:19.596Z,55.52
2022-07-27T01:04:47.297Z,55.70
2022-07-27T01:07:15.128Z,55.61
2022-07-27T01:09:58.197Z,55.65
2022-07-27T01:12:28.495Z,55.83
2022-07-27T01:14:58.029Z,55.73
2022-07-27T01:17:26.714Z,55.97
2022-07-27T01:19:54.125Z,55.83
2022-07-27T01:22:21.128Z,55.55
2022-07-27T01:24:49.555Z,55.69
2022-07-27T01:27:16.308Z,55.29
2022-07-27T01:29:43.173Z,55.23
2022-07-27T01:32:09.986Z,55.42
2022-07-27T01:34:36.711Z,55.18
2022-07-27T01:37:04.909Z,55.39
2022-07-27T01:39:33.111Z,55.24
2022-07-27T01:42:00.783Z,55.24
2022-07-27T01:44:27.831Z,55.81
2022-07-27T01:46:54.903Z,55.92
2022-07-27T01:49:22.276Z,55.67
2022-07-27T01:51:49.094Z,56.19
2022-07-27T01:54:16.242Z,56.34
2022-07-27T01:56:43.324Z,56.19
2022-07-27T01:59:16.353Z,56.42
2022-07-27T02:01:44.854Z,56.67
2022-07-27T02:04:11.818Z,56.31
2022-07-27T02:06:38.465Z,56.43
2022-07-27T02:09:05.590Z,55.81
2022-07-27T02:11:50.882Z,55.76
2022-07-27T02:14:17.673Z,55.33
2022-07-27T02:16:48.037Z,55.22
2022-07-27T02:19:16.987Z,55.25
2022-07-27T02:21:45.107Z,55.45
2022-07-27T02:24:11.772Z,55.63
2022-07-27T02:26:38.476Z,56.03
2022-07-27T02:29:05.407Z,56.10
2022-07-27T02:31:32.958Z,55.89
2022-07-27T02:34:00.293Z,55.80
2022-07-27T02:36:29.449Z,55.72
2022-07-27T02:38:57.410Z,55.65
2022-07-27T02:41:24.487Z,55.75
2022-07-27T02:43:51.340Z,55.79
2022-07-27T02:46:18.232Z,55.88
2022-07-27T02:48:45.069Z,56.11
2022-07-27T02:51:11.848Z,56.55
2022-07-27T02:53:38.563Z,56.69
2022-07-27T02:56:05.371Z,56.87
2022-07-27T02:58:32.123Z,57.42
2022-07-27T03:00:59.003Z,57.35
2022-07-27T03:03:36.793Z,57.64
2022-07-27T03:06:07.816Z,57.27
2022-07-27T03:08:36.268Z,57.50
2022-07-27T03:11:04.388Z,57.74
2022-07-27T03:13:31.348Z,57.75
2022-07-27T03:15:58.687Z,57.77
2022-07-27T03:18:25.730Z,57.53
2022-07-27T03:20:52.484Z,57.92
2022-07-27T03:23:19.746Z,57.67
2022-07-27T03:25:46.484Z,57.70
2022-07-27T03:28:13.182Z,57.28
2022-07-27T03:30:40.008Z,57.67
2022-07-27T03:33:06.915Z,58.13
2022-07-27T03:35:33.826Z,57.30
2022-07-27T03:38:00.783Z,56.96
2022-07-27T03:40:29.664Z,56.59
2022-07-27T03:42:56.642Z,56.30
2022-07-27T03:45:23.539Z,56.06
2022-07-27T03:47:50.210Z,55.96
2022-07-27T03:50:17.298Z,56.42
2022-07-27T03:52:45.707Z,56.20
2022-07-27T03:55:12.638Z,56.11
2022-07-27T03:57:39.378Z,55.90
2022-07-27T04:00:07.433Z,56.14
2022-07-27T04:02:34.260Z,56.16
2022-07-27T04:05:00.977Z,56.71
2022-07-27T04:07:27.659Z,56.33
2022-07-27T04:09:54.383Z,56.49
2022-07-27T04:12:21.210Z,55.68
2022-07-27T04:14:48.032Z,55.91
2022-07-27T04:17:55.179Z,56.34
2022-07-27T04:20:07.307Z,56.21
2022-07-27T04:22:34.105Z,56.80
2022-07-27T04:25:00.968Z,57.47
2022-07-27T04:27:27.757Z,57.74
2022-07-27T04:29:54.701Z,58.28
2022-07-27T04:32:21.592Z,58.44
2022-07-27T04:34:48.403Z,58.68
2022-07-27T04:37:15.613Z,58.73
2022-07-27T04:39:42.456Z,59.20
2022-07-27T04:42:09.456Z,59.73
2022-07-27T04:44:36.120Z,60.29
2022-07-27T04:47:03.045Z,60.06
2022-07-27T04:49:29.809Z,60.10
2022-07-27T04:51:56.557Z,60.73
2022-07-27T04:54:23.364Z,60.51
2022-07-27T04:56:50.291Z,60.22
2022-07-27T04:59:16.984Z,60.26
2022-07-27T05:01:43.710Z,59.90
2022-07-27T05:04:11.435Z,60.25
2022-07-27T05:06:38.706Z,59.95
2022-07-27T05:09:05.506Z,59.68
2022-07-27T05:11:32.292Z,59.57
2022-07-27T05:13:59.080Z,59.94
2022-07-27T05:16:28.861Z,59.32
2022-07-27T05:18:56.544Z,59.18
2022-07-27T05:21:23.346Z,58.78
2022-07-27T05:23:50.127Z,59.06
2022-07-27T05:26:17.176Z,59.07
2022-07-27T05:28:43.923Z,58.98
2022-07-27T05:31:10.677Z,59.18
2022-07-27T05:33:37.372Z,59.33
2022-07-27T05:36:07.689Z,59.11
2022-07-27T05:38:39.388Z,58.88
2022-07-27T05:41:10.731Z,58.91
2022-07-27T05:43:37.565Z,58.83
2022-07-27T05:46:04.544Z,58.39
2022-07-27T05:48:31.467Z,58.11
2022-07-27T05:50:58.187Z,58.16
2022-07-27T05:53:25.285Z,58.38
2022-07-27T05:55:58.676Z,58.74
2022-07-27T05:58:28.197Z,58.45
2022-07-27T06:00:55.243Z,58.78
2022-07-27T06:03:22.871Z,58.86
2022-07-27T06:05:50.143Z,58.57
2022-07-27T06:08:16.946Z,58.22
2022-07-27T06:10:43.940Z,58.10
2022-07-27T06:13:14.278Z,57.98
2022-07-27T06:15:41.183Z,57.82
2022-07-27T06:18:15.014Z,58.11
2022-07-27T06:20:43.240Z,58.08
2022-07-27T06:23:11.200Z,58.04
2022-07-27T06:25:38.038Z,58.29
2022-07-27T06:28:05.536Z,58.87
2022-07-27T06:30:33.316Z,58.35
2022-07-27T06:33:00.203Z,58.37
2022-07-27T06:35:27.678Z,58.18
2022-07-27T06:37:54.447Z,58.39
2022-07-27T06:40:21.600Z,58.05
2022-07-27T06:42:48.612Z,58.31
2022-07-27T06:45:15.800Z,58.11
2022-07-27T06:47:49.415Z,57.88
2022-07-27T06:50:20.950Z,57.75
2022-07-27T06:52:48.418Z,57.88
2022-07-27T06:55:15.207Z,57.28
2022-07-27T06:57:42.992Z,57.49
2022-07-27T07:00:11.427Z,57.04
2022-07-27T07:02:38.643Z,57.22
2022-07-27T07:05:05.762Z,58.02
2022-07-27T07:07:32.572Z,58.07
2022-07-27T07:09:59.248Z,57.57
2022-07-27T07:12:28.475Z,57.75
2022-07-27T07:14:55.285Z,57.37
2022-07-27T07:17:22.083Z,57.45
2022-07-27T07:19:49.015Z,57.36
2022-07-27T07:22:15.857Z,56.80
2022-07-27T07:24:42.758Z,56.41
2022-07-27T07:27:09.515Z,56.59
2022-07-27T07:29:36.248Z,56.61
2022-07-27T07:32:03.100Z,55.91
2022-07-27T07:34:29.978Z,56.45
2022-07-27T07:36:56.778Z,56.20
2022-07-27T07:39:29.150Z,56.49
2022-07-27T07:41:58.152Z,56.65
2022-07-27T07:44:24.969Z,56.79
2022-07-27T07:46:51.814Z,56.09
2022-07-27T07:49:21.460Z,55.91
2022-07-27T07:52:06.088Z,55.66
2022-07-27T07:54:32.914Z,55.83
2022-07-27T07:57:00.150Z,55.59
2022-07-27T07:59:27.188Z,54.99
2022-07-27T08:01:54.249Z,55.55
2022-07-27T08:04:21.189Z,55.19
2022-07-27T08:06:47.972Z,55.09
2022-07-27T08:09:17.165Z,54.99
2022-07-27T08:11:44.393Z,55.30
2022-07-27T08:14:11.473Z,55.12
2022-07-27T08:16:39.057Z,54.88
2022-07-27T08:19:06.296Z,55.77
2022-07-27T08:21:36.580Z,56.01
2022-07-27T08:24:03.896Z,56.60
2022-07-27T08:26:30.821Z,55.96
2022-07-27T08:28:59.342Z,56.42
2022-07-27T08:31:52.306Z,56.37
2022-07-27T08:34:18.415Z,55.60
2022-07-27T08:36:45.493Z,55.10
2022-07-27T08:39:41.199Z,54.73
2022-07-27T08:42:04.751Z,54.39
2022-07-27T08:44:33.434Z,53.65
2022-07-27T08:47:02.565Z,52.85
2022-07-27T08:49:42.507Z,53.05
2022-07-27T08:52:11.719Z,53.06
2022-07-27T08:54:40.703Z,52.99
2022-07-27T08:57:11.102Z,52.61
2022-07-27T08:59:38.406Z,52.50
2022-07-27T09:02:10.715Z,52.34
2022-07-27T09:04:40.731Z,52.35
2022-07-27T09:07:07.639Z,51.96
2022-07-27T09:09:46.174Z,51.23
2022-07-27T09:12:13.060Z,50.44
2022-07-27T09:14:41.745Z,50.58
2022-07-27T09:20:18.448Z,51.38
2022-07-27T09:22:54.344Z,51.03
2022-07-27T09:25:52.150Z,50.08
2022-07-27T09:28:11.969Z,49.84
2022-07-27T09:30:43.336Z,49.84
2022-07-27T09:33:10.633Z,49.31
2022-07-27T09:35:37.971Z,49.28
2022-07-27T09:38:18.876Z,49.01
2022-07-27T09:40:46.708Z,49.08
2022-07-27T09:46:09.870Z,48.97
2022-07-27T09:48:36.903Z,48.63
2022-07-27T09:51:43.553Z,49.63
2022-07-27T09:53:55.379Z,49.28
2022-07-27T09:56:32.772Z,48.61
2022-07-27T09:59:01.679Z,48.83
2022-07-27T10:01:33.125Z,48.67
2022-07-27T10:04:02.876Z,48.27
2022-07-27T10:06:38.982Z,47.62
2022-07-27T10:09:14.992Z,47.05
2022-07-27T10:11:42.024Z,46.58
2022-07-27T10:14:10.891Z,45.72
2022-07-27T10:16:40.188Z,46.79
2022-07-27T10:19:14.168Z,45.87
2022-07-27T10:21:46.103Z,45.95
2022-07-27T10:24:29.109Z,46.27
2022-07-27T10:26:56.387Z,45.72
2022-07-27T10:29:24.614Z,45.26
2022-07-27T10:31:54.055Z,44.27
2022-07-27T10:34:40.871Z,44.57
2022-07-27T10:37:16.141Z,45.55
2022-07-27T10:39:51.210Z,44.28
2022-07-27T10:42:25.820Z,45.61
2022-07-27T10:44:55.343Z,44.79
2022-07-27T10:47:37.946Z,43.67
2022-07-27T10:50:17.037Z,41.42
2022-07-27T10:52:56.621Z,42.91
2022-07-27T10:55:32.721Z,42.86
2022-07-27T10:58:11.309Z,41.93
2022-07-27T11:00:57.460Z,40.76
2022-07-27T11:03:25.796Z,40.08
2022-07-27T11:06:21.964Z,40.37
2022-07-27T11:09:17.087Z,40.75
2022-07-27T11:11:38.799Z,40.29
2022-07-27T11:14:05.785Z,40.51
2022-07-27T11:16:37.029Z,39.47
2022-07-27T11:19:17.741Z,39.48
2022-07-27T11:21:46.647Z,38.81
2022-07-27T11:24:17.190Z,38.92
2022-07-27T11:26:47.018Z,39.01
2022-07-27T11:29:16.050Z,37.27
2022-07-27T11:31:55.427Z,38.30
2022-07-27T11:34:30.675Z,38.20
2022-07-27T11:37:01.921Z,37.99
2022-07-27T11:42:18.579Z,36.63
2022-07-27T11:44:48.094Z,36.41
2022-07-27T11:47:19.734Z,36.96
2022-07-27T11:49:46.678Z,36.37
2022-07-27T11:52:17.773Z,36.36
2022-07-27T11:54:51.322Z,34.16
2022-07-27T11:57:19.042Z,36.68
2022-07-27T11:59:46.281Z,36.54
2022-07-27T12:02:17.898Z,35.83
2022-07-27T12:04:49.506Z,35.57
2022-07-27T12:07:17.216Z,35.01
2022-07-27T12:09:51.656Z,35.76
2022-07-27T12:12:28.374Z,35.53
2022-07-27T12:14:57.746Z,36.17
2022-07-27T12:17:29.069Z,36.06
2022-07-27T12:20:05.365Z,35.79
2022-07-27T12:22:38.315Z,34.82
2022-07-27T12:25:17.582Z,35.09
2022-07-27T12:27:56.599Z,33.51
2022-07-27T12:30:47.855Z,33.29
2022-07-27T12:33:37.419Z,33.29
2022-07-27T12:36:06.672Z,33.58
2022-07-27T12:38:48.894Z,33.91
2022-07-27T12:41:26.759Z,33.81
2022-07-27T12:44:12.095Z,33.34
2022-07-27T12:46:55.768Z,35.04
2022-07-27T12:49:26.722Z,34.66
2022-07-27T12:51:53.499Z,35.03
2022-07-27T12:54:20.257Z,34.66
2022-07-27T12:56:48.700Z,34.77
2022-07-27T12:59:15.829Z,35.06
2022-07-27T13:01:42.843Z,34.60
2022-07-27T13:04:09.677Z,34.40
2022-07-27T13:06:36.384Z,34.52
2022-07-27T13:09:03.488Z,34.75
2022-07-27T13:11:30.254Z,34.76
2022-07-27T13:13:56.915Z,36.00
2022-07-27T13:16:23.835Z,35.71
2022-07-27T13:18:50.583Z,35.62
2022-07-27T13:21:17.310Z,34.89
2022-07-27T13:23:45.864Z,35.40
2022-07-27T13:26:13.055Z,35.69
2022-07-27T13:28:40.170Z,34.86
2022-07-27T13:31:07.104Z,35.38
2022-07-27T13:33:33.873Z,35.42
2022-07-27T13:36:01.203Z,34.36
2022-07-27T13:38:28.758Z,34.55
2022-07-27T13:40:55.978Z,34.32
2022-07-27T13:43:22.791Z,35.94
2022-07-27T13:45:49.747Z,35.14
2022-07-27T13:48:16.718Z,35.24
2022-07-27T13:50:45.695Z,34.90
2022-07-27T13:53:15.238Z,35.16
2022-07-27T13:55:43.361Z,34.74
2022-07-27T13:58:11.913Z,34.87
2022-07-27T14:00:39.489Z,35.38
2022-07-27T14:03:09.258Z,35.73
2022-07-27T14:05:38.154Z,36.43
2022-07-27T14:08:08.595Z,37.39
2022-07-27T14:10:44.619Z,36.60
2022-07-27T14:13:14.842Z,36.54
2022-07-27T14:15:53.700Z,35.73
2022-07-27T14:18:27.563Z,36.28
2022-07-27T14:20:56.760Z,36.78
2022-07-27T14:23:25.238Z,36.68
2022-07-27T14:25:53.838Z,36.90
2022-07-27T14:28:21.428Z,37.09
2022-07-27T14:30:49.850Z,36.62
2022-07-27T14:33:18.297Z,37.54
2022-07-27T14:35:46.504Z,37.55
2022-07-27T14:38:13.585Z,36.98
2022-07-27T14:40:52.874Z,37.12
2022-07-27T14:43:21.341Z,36.98
2022-07-27T14:45:48.522Z,36.30
2022-07-27T14:48:25.058Z,36.09
2022-07-27T14:50:55.549Z,35.78
2022-07-27T14:53:22.500Z,35.42
2022-07-27T14:55:49.394Z,35.18
2022-07-27T14:58:16.428Z,35.14
2022-07-27T15:00:43.596Z,35.44
2022-07-27T15:03:42.455Z,34.63
2022-07-27T18:08:10.526Z,40.12
2022-07-27T18:10:38.778Z,39.82
2022-07-27T18:13:08.739Z,40.00
2022-07-27T18:15:48.301Z,40.22
2022-07-27T18:18:22.049Z,39.97
2022-07-27T18:20:52.406Z,40.11
2022-07-27T18:23:20.968Z,40.29
2022-07-27T18:25:47.958Z,40.21
2022-07-27T18:28:16.392Z,40.39
2022-07-27T18:30:44.098Z,40.32
2022-07-27T18:33:10.999Z,40.41
2022-07-27T18:35:37.998Z,40.55
2022-07-27T18:38:08.075Z,40.28
2022-07-27T18:40:35.947Z,40.49
2022-07-27T18:43:04.973Z,40.48
2022-07-27T18:45:34.190Z,40.85
2022-07-27T18:48:01.874Z,40.76
2022-07-27T18:50:28.972Z,40.91
2022-07-27T18:52:57.112Z,40.61
2022-07-27T18:55:25.197Z,40.79
2022-07-27T18:57:54.447Z,40.77
2022-07-27T19:00:23.025Z,40.84
2022-07-27T19:06:50.144Z,41.55
2022-07-27T19:09:17.229Z,41.54
2022-07-27T19:11:46.904Z,41.82
2022-07-27T19:14:15.459Z,41.84
2022-07-27T19:16:43.822Z,41.96
2022-07-27T19:19:15.757Z,42.14
2022-07-27T19:21:44.409Z,42.26
2022-07-27T19:24:12.886Z,42.33
2022-07-27T19:26:41.234Z,42.53
2022-07-27T19:29:11.305Z,42.30
2022-07-27T19:31:39.362Z,42.41
2022-07-27T19:34:15.373Z,42.55
2022-07-27T19:36:42.709Z,42.22
2022-07-27T19:39:10.327Z,42.58
2022-07-27T19:41:38.514Z,42.87
2022-07-27T19:44:07.860Z,43.01
2022-07-27T19:46:35.632Z,42.97
2022-07-27T19:49:04.197Z,43.76
2022-07-27T19:51:32.135Z,43.79
2022-07-27T19:54:00.172Z,43.74
2022-07-27T19:56:27.449Z,43.94
2022-07-27T19:59:00.202Z,43.83
2022-07-27T20:01:27.711Z,43.96
2022-07-27T20:03:56.648Z,43.70
2022-07-27T20:06:25.074Z,43.85
2022-07-27T20:08:56.248Z,43.64
2022-07-27T20:11:23.881Z,43.64
2022-07-27T20:13:51.189Z,43.62
2022-07-27T20:16:18.542Z,43.33
2022-07-27T20:18:45.545Z,43.62
2022-07-27T20:21:20.123Z,43.38
2022-07-27T20:23:52.796Z,44.01
2022-07-27T20:26:21.008Z,44.11
2022-07-27T20:28:50.322Z,44.47
2022-07-27T20:31:22.771Z,44.93
2022-07-27T20:33:52.322Z,45.22
2022-07-27T20:36:19.957Z,45.12
2022-07-27T20:38:47.790Z,44.69
2022-07-27T20:41:15.155Z,44.73
2022-07-27T20:43:42.125Z,44.35
2022-07-27T20:46:09.365Z,44.61
2022-07-27T20:48:37.936Z,44.83
2022-07-27T20:51:05.235Z,44.57
2022-07-27T20:53:32.383Z,44.06
2022-07-27T20:55:59.819Z,44.29
2022-07-27T20:58:27.650Z,44.43
2022-07-27T21:00:55.046Z,44.86
2022-07-27T21:03:22.388Z,44.41
2022-07-27T21:05:49.244Z,44.15
2022-07-27T21:08:16.015Z,44.21
2022-07-27T21:10:42.818Z,44.23
2022-07-27T21:13:09.519Z,44.30
2022-07-27T21:15:36.252Z,44.46
2022-07-27T21:18:03.020Z,44.52
2022-07-27T21:20:29.912Z,44.26
2022-07-27T21:23:15.491Z,44.40
2022-07-27T21:25:43.950Z,44.54
2022-07-27T21:28:16.922Z,44.61
2022-07-27T21:30:45.639Z,44.76
2022-07-27T21:33:12.533Z,44.86
2022-07-27T21:35:39.310Z,45.02
2022-07-27T21:38:06.388Z,45.04
2022-07-27T21:40:33.801Z,45.12
2022-07-27T21:43:01.138Z,45.19
2022-07-27T21:45:28.266Z,45.49
2022-07-27T21:47:55.160Z,45.58
2022-07-27T21:50:22.075Z,45.79
2022-07-27T21:52:48.900Z,45.73
2022-07-27T21:55:22.678Z,45.97
2022-07-27T21:57:51.178Z,45.89
2022-07-27T22:00:25.623Z,46.03
2022-07-27T22:02:52.691Z,46.01
2022-07-27T22:05:19.542Z,46.28
2022-07-27T22:07:46.221Z,46.16
2022-07-27T22:10:12.980Z,46.40
2022-07-27T22:12:39.730Z,46.38
2022-07-27T22:15:06.991Z,46.27
2022-07-27T22:17:33.751Z,46.21
2022-07-27T22:20:00.529Z,46.30
2022-07-27T22:22:27.475Z,46.33
2022-07-27T22:24:54.253Z,46.51
2022-07-27T22:27:21.225Z,46.59
2022-07-27T22:29:48.040Z,46.52
2022-07-27T22:32:14.836Z,46.76
2022-07-27T22:34:42.112Z,46.88
2022-07-27T22:37:09.103Z,46.77
2022-07-27T22:39:35.996Z,47.04
2022-07-27T22:42:06.769Z,46.99
2022-07-27T22:44:37.446Z,46.88
2022-07-27T22:47:05.837Z,46.77
2022-07-27T22:49:36.171Z,47.03
2022-07-27T22:52:04.426Z,46.56
2022-07-27T22:54:35.236Z,46.48
2022-07-27T22:57:02.769Z,46.72
2022-07-27T22:59:29.597Z,46.98
2022-07-27T23:01:56.650Z,47.08
2022-07-27T23:04:23.521Z,47.31
2022-07-27T23:06:50.523Z,47.25
2022-07-27T23:09:17.528Z,47.41
2022-07-27T23:11:45.239Z,47.61
2022-07-27T23:14:12.904Z,47.72
2022-07-27T23:16:40.176Z,47.81
2022-07-27T23:19:06.974Z,47.72
2022-07-27T23:21:34.075Z,47.85
2022-07-27T23:24:03.168Z,47.72
2022-07-27T23:26:32.044Z,47.84
2022-07-27T23:29:00.400Z,47.81
2022-07-27T23:31:27.451Z,47.77
2022-07-27T23:33:54.251Z,47.50
2022-07-27T23:36:21.546Z,47.85
2022-07-27T23:38:48.282Z,47.55
2022-07-27T23:41:16.583Z,47.79
2022-07-27T23:43:44.104Z,47.96
2022-07-27T23:46:12.142Z,47.86
2022-07-27T23:48:38.912Z,47.88
2022-07-27T23:51:05.753Z,47.80
2022-07-27T23:53:32.436Z,47.95
2022-07-27T23:55:59.090Z,47.76
2022-07-27T23:58:25.857Z,47.79
